sensor_id;sensor_type;location;lat;lon;timestamp;pressure;altitude;pressure_sealevel;temperature;humidity
12785;BME280;6456;42.680;23.260;2024-03-08T00:01:38;94647.41;;;5.80;100.00
12785;BME280;6456;42.680;23.260;2024-03-08T00:04:07;94663.25;;;6.08;100.00
12785;BME280;6456;42.680;23.260;2024-03-08T00:06:36;94592.88;;;5.70;100.00
12785;BME280;6456;42.680;23.260;2024-03-08T00:09:03;94604.66;;;5.81;100.00
12785;BME280;6456;42.680;23.260;2024-03-08T00:11:35;94711.94;;;6.66;100.00
12785;BME280;6456;42.680;23.260;2024-03-08T00:14:03;94623.16;;;6.15;100.00
12785;BME280;6456;42.680;23.260;2024-03-08T00:16:33;94703.63;;;6.62;100.00
12785;BME280;6456;42.680;23.260;2024-03-08T00:19:01;94687.13;;;6.62;100.00
12785;BME280;6456;42.680;23.260;2024-03-08T00:21:28;94711.03;;;6.80;100.00
12785;BME280;6456;42.680;23.260;2024-03-08T00:23:55;94659.63;;;6.44;100.00
12785;BME280;6456;42.680;23.260;2024-03-08T00:26:22;94636.84;;;6.38;100.00
12785;BME280;6456;42.680;23.260;2024-03-08T00:28:49;94670.22;;;6.58;100.00
12785;BME280;6456;42.680;23.260;2024-03-08T00:31:18;94584.19;;;5.99;100.00
12785;BME280;6456;42.680;23.260;2024-03-08T00:33:47;94699.91;;;6.71;100.00
12785;BME280;6456;42.680;23.260;2024-03-08T00:36:14;94693.53;;;6.59;100.00
12785;BME280;6456;42.680;23.260;2024-03-08T00:38:41;94710.75;;;6.68;100.00
12785;BME280;6456;42.680;23.260;2024-03-08T00:41:07;94679.34;;;6.47;100.00
12785;BME280;6456;42.680;23.260;2024-03-08T00:43:34;94709.31;;;6.66;100.00
12785;BME280;6456;42.680;23.260;2024-03-08T00:46:01;94678.97;;;6.50;100.00
12785;BME280;6456;42.680;23.260;2024-03-08T00:48:28;94717.06;;;6.59;100.00
12785;BME280;6456;42.680;23.260;2024-03-08T00:50:57;94690.56;;;6.41;100.00
12785;BME280;6456;42.680;23.260;2024-03-08T00:56:10;94695.59;;;6.42;100.00
12785;BME280;6456;42.680;23.260;2024-03-08T00:58:37;94636.25;;;6.22;100.00
12785;BME280;6456;42.680;23.260;2024-03-08T01:01:04;94658.28;;;6.34;100.00
12785;BME280;6456;42.680;23.260;2024-03-08T01:03:31;94687.03;;;6.49;100.00
12785;BME280;6456;42.680;23.260;2024-03-08T01:06:01;94600.97;;;5.75;100.00
12785;BME280;6456;42.680;23.260;2024-03-08T01:08:28;94646.31;;;6.04;100.00
12785;BME280;6456;42.680;23.260;2024-03-08T01:10:55;94573.81;;;5.70;100.00
12785;BME280;6456;42.680;23.260;2024-03-08T01:13:22;94576.06;;;5.73;100.00
12785;BME280;6456;42.680;23.260;2024-03-08T01:15:49;94685.38;;;6.47;100.00
12785;BME280;6456;42.680;23.260;2024-03-08T01:18:16;94598.41;;;5.97;100.00
12785;BME280;6456;42.680;23.260;2024-03-08T01:20:45;94637.19;;;6.14;100.00
12785;BME280;6456;42.680;23.260;2024-03-08T01:23:13;94652.13;;;6.20;100.00
12785;BME280;6456;42.680;23.260;2024-03-08T01:25:40;94607.19;;;5.89;100.00
12785;BME280;6456;42.680;23.260;2024-03-08T01:28:09;94656.84;;;6.31;100.00
12785;BME280;6456;42.680;23.260;2024-03-08T01:30:36;94672.94;;;6.50;100.00
12785;BME280;6456;42.680;23.260;2024-03-08T01:33:04;94676.00;;;6.53;100.00
12785;BME280;6456;42.680;23.260;2024-03-08T01:35:31;94658.25;;;6.27;100.00
12785;BME280;6456;42.680;23.260;2024-03-08T01:37:58;94623.88;;;6.09;100.00
12785;BME280;6456;42.680;23.260;2024-03-08T01:40:27;94672.69;;;6.44;100.00
12785;BME280;6456;42.680;23.260;2024-03-08T01:42:54;94653.38;;;6.24;100.00
12785;BME280;6456;42.680;23.260;2024-03-08T01:45:22;94635.28;;;6.23;100.00
12785;BME280;6456;42.680;23.260;2024-03-08T01:47:49;94563.91;;;5.65;100.00
12785;BME280;6456;42.680;23.260;2024-03-08T01:50:17;94669.19;;;6.37;100.00
12785;BME280;6456;42.680;23.260;2024-03-08T01:52:45;94657.50;;;6.33;100.00
12785;BME280;6456;42.680;23.260;2024-03-08T01:55:12;94659.72;;;6.36;100.00
12785;BME280;6456;42.680;23.260;2024-03-08T01:57:43;94667.72;;;6.50;100.00
12785;BME280;6456;42.680;23.260;2024-03-08T02:00:11;94648.34;;;6.44;100.00
12785;BME280;6456;42.680;23.260;2024-03-08T02:02:41;94596.47;;;6.20;100.00
12785;BME280;6456;42.680;23.260;2024-03-08T02:05:09;94656.66;;;6.69;100.00
12785;BME280;6456;42.680;23.260;2024-03-08T02:07:37;94641.69;;;6.63;100.00
12785;BME280;6456;42.680;23.260;2024-03-08T02:10:05;94607.91;;;6.40;100.00
12785;BME280;6456;42.680;23.260;2024-03-08T02:12:32;94623.34;;;6.56;100.00
12785;BME280;6456;42.680;23.260;2024-03-08T02:15:01;94667.44;;;6.87;100.00
12785;BME280;6456;42.680;23.260;2024-03-08T02:17:30;94631.28;;;6.69;100.00
12785;BME280;6456;42.680;23.260;2024-03-08T02:19:57;94600.56;;;6.50;100.00
12785;BME280;6456;42.680;23.260;2024-03-08T02:22:28;94648.59;;;6.70;100.00
12785;BME280;6456;42.680;23.260;2024-03-08T02:24:58;94583.94;;;6.36;100.00
12785;BME280;6456;42.680;23.260;2024-03-08T02:27:27;94632.91;;;6.70;100.00
12785;BME280;6456;42.680;23.260;2024-03-08T02:29:58;94667.53;;;6.93;100.00
12785;BME280;6456;42.680;23.260;2024-03-08T02:32:26;94653.50;;;6.80;100.00
12785;BME280;6456;42.680;23.260;2024-03-08T02:34:56;94585.31;;;6.32;100.00
12785;BME280;6456;42.680;23.260;2024-03-08T02:37:25;94655.06;;;6.74;100.00
12785;BME280;6456;42.680;23.260;2024-03-08T02:39:58;94621.66;;;6.49;100.00
12785;BME280;6456;42.680;23.260;2024-03-08T02:42:26;94670.06;;;6.87;100.00
12785;BME280;6456;42.680;23.260;2024-03-08T02:44:53;94671.31;;;6.91;100.00
12785;BME280;6456;42.680;23.260;2024-03-08T02:47:20;94666.34;;;6.96;100.00
12785;BME280;6456;42.680;23.260;2024-03-08T02:49:47;94650.78;;;6.88;100.00
12785;BME280;6456;42.680;23.260;2024-03-08T02:52:15;94658.72;;;7.01;100.00
12785;BME280;6456;42.680;23.260;2024-03-08T02:54:42;94661.59;;;7.06;100.00
12785;BME280;6456;42.680;23.260;2024-03-08T02:57:11;94554.34;;;6.29;100.00
12785;BME280;6456;42.680;23.260;2024-03-08T02:59:40;94659.34;;;7.03;100.00
12785;BME280;6456;42.680;23.260;2024-03-08T03:02:07;94655.72;;;7.04;100.00
12785;BME280;6456;42.680;23.260;2024-03-08T03:04:35;94616.47;;;6.76;100.00
12785;BME280;6456;42.680;23.260;2024-03-08T03:07:03;94617.28;;;6.77;100.00
12785;BME280;6456;42.680;23.260;2024-03-08T03:09:31;94652.47;;;7.02;100.00
12785;BME280;6456;42.680;23.260;2024-03-08T03:11:58;94610.00;;;6.72;100.00
12785;BME280;6456;42.680;23.260;2024-03-08T03:14:27;94640.72;;;6.91;100.00
12785;BME280;6456;42.680;23.260;2024-03-08T03:16:54;94619.78;;;6.64;100.00
12785;BME280;6456;42.680;23.260;2024-03-08T03:19:21;94660.00;;;6.84;100.00
12785;BME280;6456;42.680;23.260;2024-03-08T03:21:48;94675.53;;;6.92;100.00
12785;BME280;6456;42.680;23.260;2024-03-08T03:24:15;94618.75;;;6.58;100.00
12785;BME280;6456;42.680;23.260;2024-03-08T03:26:43;94683.00;;;6.95;100.00
12785;BME280;6456;42.680;23.260;2024-03-08T03:29:11;94612.56;;;6.44;100.00
12785;BME280;6456;42.680;23.260;2024-03-08T03:31:40;94677.66;;;6.82;100.00
12785;BME280;6456;42.680;23.260;2024-03-08T03:34:07;94688.97;;;6.89;100.00
12785;BME280;6456;42.680;23.260;2024-03-08T03:36:34;94619.09;;;6.34;100.00
12785;BME280;6456;42.680;23.260;2024-03-08T03:39:03;94696.06;;;6.88;100.00
12785;BME280;6456;42.680;23.260;2024-03-08T03:41:36;94615.69;;;6.33;100.00
12785;BME280;6456;42.680;23.260;2024-03-08T03:44:04;94699.06;;;6.92;100.00
12785;BME280;6456;42.680;23.260;2024-03-08T03:46:32;94671.53;;;6.68;100.00
12785;BME280;6456;42.680;23.260;2024-03-08T03:49:01;94719.63;;;6.95;100.00
12785;BME280;6456;42.680;23.260;2024-03-08T03:51:29;94697.84;;;6.88;100.00
12785;BME280;6456;42.680;23.260;2024-03-08T03:53:56;94649.16;;;6.44;100.00
12785;BME280;6456;42.680;23.260;2024-03-08T03:56:27;94707.06;;;6.84;100.00
12785;BME280;6456;42.680;23.260;2024-03-08T03:58:54;94633.03;;;6.20;100.00
12785;BME280;6456;42.680;23.260;2024-03-08T04:01:21;94714.19;;;6.69;100.00
12785;BME280;6456;42.680;23.260;2024-03-08T04:03:49;94619.31;;;5.97;100.00
12785;BME280;6456;42.680;23.260;2024-03-08T04:06:18;94642.00;;;6.11;100.00
12785;BME280;6456;42.680;23.260;2024-03-08T04:08:45;94724.13;;;6.59;100.00
12785;BME280;6456;42.680;23.260;2024-03-08T04:11:12;94681.13;;;6.25;100.00
12785;BME280;6456;42.680;23.260;2024-03-08T04:13:41;94725.72;;;6.60;100.00
12785;BME280;6456;42.680;23.260;2024-03-08T04:16:09;94689.97;;;6.24;100.00
12785;BME280;6456;42.680;23.260;2024-03-08T04:18:37;94651.28;;;5.84;100.00
12785;BME280;6456;42.680;23.260;2024-03-08T04:21:04;94679.38;;;5.82;100.00
12785;BME280;6456;42.680;23.260;2024-03-08T04:23:36;94609.38;;;5.42;100.00
12785;BME280;6456;42.680;23.260;2024-03-08T04:26:03;94739.06;;;6.14;100.00
12785;BME280;6456;42.680;23.260;2024-03-08T04:28:32;94712.19;;;5.85;100.00
12785;BME280;6456;42.680;23.260;2024-03-08T04:30:59;94737.94;;;6.02;100.00
12785;BME280;6456;42.680;23.260;2024-03-08T04:33:27;94627.38;;;5.37;100.00
12785;BME280;6456;42.680;23.260;2024-03-08T04:35:54;94682.47;;;5.71;100.00
12785;BME280;6456;42.680;23.260;2024-03-08T04:38:22;94715.94;;;5.82;100.00
12785;BME280;6456;42.680;23.260;2024-03-08T04:40:51;94727.75;;;5.78;100.00
12785;BME280;6456;42.680;23.260;2024-03-08T04:43:19;94710.81;;;5.59;100.00
12785;BME280;6456;42.680;23.260;2024-03-08T04:45:46;94753.81;;;5.86;100.00
12785;BME280;6456;42.680;23.260;2024-03-08T04:48:14;94757.00;;;5.73;100.00
12785;BME280;6456;42.680;23.260;2024-03-08T04:50:41;94736.28;;;5.57;100.00
12785;BME280;6456;42.680;23.260;2024-03-08T04:53:08;94746.38;;;5.60;100.00
12785;BME280;6456;42.680;23.260;2024-03-08T04:55:36;94754.91;;;5.69;100.00
12785;BME280;6456;42.680;23.260;2024-03-08T04:58:04;94701.59;;;5.34;100.00
12785;BME280;6456;42.680;23.260;2024-03-08T05:00:32;94672.91;;;5.19;100.00
12785;BME280;6456;42.680;23.260;2024-03-08T05:02:59;94688.47;;;5.28;100.00
12785;BME280;6456;42.680;23.260;2024-03-08T05:05:28;94730.78;;;5.52;100.00
12785;BME280;6456;42.680;23.260;2024-03-08T05:07:55;94767.59;;;5.72;100.00
12785;BME280;6456;42.680;23.260;2024-03-08T05:10:23;94766.78;;;5.71;100.00
12785;BME280;6456;42.680;23.260;2024-03-08T05:12:50;94694.84;;;5.25;100.00
12785;BME280;6456;42.680;23.260;2024-03-08T05:15:19;94718.16;;;5.27;100.00
12785;BME280;6456;42.680;23.260;2024-03-08T05:17:47;94723.44;;;5.18;100.00
12785;BME280;6456;42.680;23.260;2024-03-08T05:20:14;94716.63;;;5.17;100.00
12785;BME280;6456;42.680;23.260;2024-03-08T05:22:43;94735.50;;;5.19;100.00
12785;BME280;6456;42.680;23.260;2024-03-08T05:25:10;94788.66;;;5.56;100.00
12785;BME280;6456;42.680;23.260;2024-03-08T05:27:37;94776.66;;;5.47;100.00
12785;BME280;6456;42.680;23.260;2024-03-08T05:30:05;94744.56;;;5.09;100.00
12785;BME280;6456;42.680;23.260;2024-03-08T05:32:34;94776.84;;;5.31;100.00
12785;BME280;6456;42.680;23.260;2024-03-08T05:35:01;94799.94;;;5.34;100.00
12785;BME280;6456;42.680;23.260;2024-03-08T05:37:32;94729.31;;;4.83;100.00
12785;BME280;6456;42.680;23.260;2024-03-08T05:39:59;94794.97;;;5.24;100.00
12785;BME280;6456;42.680;23.260;2024-03-08T05:42:26;94765.97;;;5.19;100.00
12785;BME280;6456;42.680;23.260;2024-03-08T05:44:54;94698.06;;;4.75;100.00
12785;BME280;6456;42.680;23.260;2024-03-08T05:47:24;94815.47;;;5.50;100.00
12785;BME280;6456;42.680;23.260;2024-03-08T05:49:52;94823.63;;;5.47;100.00
12785;BME280;6456;42.680;23.260;2024-03-08T05:52:20;94827.25;;;5.46;100.00
12785;BME280;6456;42.680;23.260;2024-03-08T05:54:47;94801.34;;;5.22;100.00
12785;BME280;6456;42.680;23.260;2024-03-08T05:57:14;94825.53;;;5.38;100.00
12785;BME280;6456;42.680;23.260;2024-03-08T05:59:41;94760.88;;;4.88;100.00
12785;BME280;6456;42.680;23.260;2024-03-08T06:02:08;94780.50;;;4.99;100.00
12785;BME280;6456;42.680;23.260;2024-03-08T06:04:35;94830.56;;;5.40;100.00
12785;BME280;6456;42.680;23.260;2024-03-08T06:07:05;94841.00;;;5.40;100.00
12785;BME280;6456;42.680;23.260;2024-03-08T06:09:37;94823.03;;;5.22;100.00
12785;BME280;6456;42.680;23.260;2024-03-08T06:12:05;94784.16;;;4.90;100.00
12785;BME280;6456;42.680;23.260;2024-03-08T06:14:35;94830.66;;;5.24;100.00
12785;BME280;6456;42.680;23.260;2024-03-08T06:17:02;94828.56;;;5.42;100.00
12785;BME280;6456;42.680;23.260;2024-03-08T06:19:31;94846.53;;;5.59;100.00
12785;BME280;6456;42.680;23.260;2024-03-08T06:21:58;94849.09;;;5.67;100.00
12785;BME280;6456;42.680;23.260;2024-03-08T06:24:27;94722.69;;;4.95;100.00
12785;BME280;6456;42.680;23.260;2024-03-08T06:26:54;94727.91;;;4.95;100.00
12785;BME280;6456;42.680;23.260;2024-03-08T06:29:21;94832.25;;;5.70;100.00
12785;BME280;6456;42.680;23.260;2024-03-08T06:31:49;94791.19;;;5.27;100.00
12785;BME280;6456;42.680;23.260;2024-03-08T06:34:16;94739.94;;;4.96;100.00
12785;BME280;6456;42.680;23.260;2024-03-08T06:36:43;94838.78;;;5.51;100.00
12785;BME280;6456;42.680;23.260;2024-03-08T06:39:10;94821.66;;;5.49;100.00
12785;BME280;6456;42.680;23.260;2024-03-08T06:41:39;94758.59;;;5.08;100.00
12785;BME280;6456;42.680;23.260;2024-03-08T06:44:06;94843.31;;;5.72;100.00
12785;BME280;6456;42.680;23.260;2024-03-08T06:46:33;94868.38;;;5.81;100.00
12785;BME280;6456;42.680;23.260;2024-03-08T06:49:00;94829.38;;;5.65;100.00
12785;BME280;6456;42.680;23.260;2024-03-08T06:51:28;94861.41;;;5.96;100.00
12785;BME280;6456;42.680;23.260;2024-03-08T06:53:56;94868.53;;;6.02;100.00
12785;BME280;6456;42.680;23.260;2024-03-08T06:56:23;94871.88;;;6.11;100.00
12785;BME280;6456;42.680;23.260;2024-03-08T06:58:52;94865.84;;;6.10;100.00
12785;BME280;6456;42.680;23.260;2024-03-08T07:01:19;94839.00;;;5.79;100.00
12785;BME280;6456;42.680;23.260;2024-03-08T07:03:46;94827.72;;;5.87;100.00
12785;BME280;6456;42.680;23.260;2024-03-08T07:06:13;94847.00;;;6.00;100.00
12785;BME280;6456;42.680;23.260;2024-03-08T07:08:44;94784.19;;;5.79;100.00
12785;BME280;6456;42.680;23.260;2024-03-08T07:11:12;94823.31;;;6.16;100.00
12785;BME280;6456;42.680;23.260;2024-03-08T07:13:44;94815.47;;;6.16;100.00
12785;BME280;6456;42.680;23.260;2024-03-08T07:16:12;94780.81;;;5.93;100.00
12785;BME280;6456;42.680;23.260;2024-03-08T07:18:39;94858.78;;;6.55;100.00
12785;BME280;6456;42.680;23.260;2024-03-08T07:21:08;94878.25;;;6.81;100.00
12785;BME280;6456;42.680;23.260;2024-03-08T07:23:35;94824.56;;;6.50;100.00
12785;BME280;6456;42.680;23.260;2024-03-08T07:26:30;94873.19;;;6.80;100.00
12785;BME280;6456;42.680;23.260;2024-03-08T07:28:57;94813.13;;;6.51;100.00
12785;BME280;6456;42.680;23.260;2024-03-08T07:31:27;94856.00;;;6.71;100.00
12785;BME280;6456;42.680;23.260;2024-03-08T07:34:10;94883.47;;;6.96;100.00
12785;BME280;6456;42.680;23.260;2024-03-08T07:36:37;94871.72;;;6.92;100.00
12785;BME280;6456;42.680;23.260;2024-03-08T07:39:04;94870.75;;;6.93;100.00
12785;BME280;6456;42.680;23.260;2024-03-08T07:41:37;94862.72;;;6.80;100.00
12785;BME280;6456;42.680;23.260;2024-03-08T07:44:05;94887.63;;;6.76;100.00
12785;BME280;6456;42.680;23.260;2024-03-08T07:46:35;94839.69;;;6.39;100.00
12785;BME280;6456;42.680;23.260;2024-03-08T07:49:02;94799.16;;;6.14;100.00
12785;BME280;6456;42.680;23.260;2024-03-08T07:51:29;94878.00;;;6.47;100.00
12785;BME280;6456;42.680;23.260;2024-03-08T07:53:57;94873.06;;;6.37;100.00
12785;BME280;6456;42.680;23.260;2024-03-08T07:56:25;94779.91;;;5.86;100.00
12785;BME280;6456;42.680;23.260;2024-03-08T07:58:52;94870.44;;;6.37;100.00
12785;BME280;6456;42.680;23.260;2024-03-08T08:01:19;94889.53;;;6.53;100.00
12785;BME280;6456;42.680;23.260;2024-03-08T08:03:48;94892.88;;;6.61;100.00
12785;BME280;6456;42.680;23.260;2024-03-08T08:06:15;94820.88;;;6.15;100.00
12785;BME280;6456;42.680;23.260;2024-03-08T08:08:42;94890.06;;;6.77;100.00
12785;BME280;6456;42.680;23.260;2024-03-08T08:11:09;94889.88;;;6.93;100.00
12785;BME280;6456;42.680;23.260;2024-03-08T08:13:37;94889.56;;;7.03;100.00
12785;BME280;6456;42.680;23.260;2024-03-08T08:16:04;94834.97;;;6.79;100.00
12785;BME280;6456;42.680;23.260;2024-03-08T08:18:32;94809.69;;;6.86;100.00
12785;BME280;6456;42.680;23.260;2024-03-08T08:21:02;94877.13;;;7.47;100.00
12785;BME280;6456;42.680;23.260;2024-03-08T08:23:31;94872.22;;;7.59;100.00
12785;BME280;6456;42.680;23.260;2024-03-08T08:25:59;94888.03;;;7.93;100.00
12785;BME280;6456;42.680;23.260;2024-03-08T08:28:29;94864.13;;;7.82;100.00
12785;BME280;6456;42.680;23.260;2024-03-08T08:30:56;94875.06;;;8.13;100.00
12785;BME280;6456;42.680;23.260;2024-03-08T08:33:25;94841.97;;;8.05;100.00
12785;BME280;6456;42.680;23.260;2024-03-08T08:35:52;94832.16;;;8.14;100.00
12785;BME280;6456;42.680;23.260;2024-03-08T08:38:21;94847.47;;;8.17;100.00
12785;BME280;6456;42.680;23.260;2024-03-08T08:40:48;94872.66;;;8.39;100.00
12785;BME280;6456;42.680;23.260;2024-03-08T08:43:15;94884.09;;;8.59;100.00
12785;BME280;6456;42.680;23.260;2024-03-08T08:45:43;94855.38;;;8.51;100.00
12785;BME280;6456;42.680;23.260;2024-03-08T08:48:12;94870.09;;;8.52;100.00
12785;BME280;6456;42.680;23.260;2024-03-08T08:50:39;94819.28;;;8.19;100.00
12785;BME280;6456;42.680;23.260;2024-03-08T08:53:07;94897.44;;;8.71;100.00
12785;BME280;6456;42.680;23.260;2024-03-08T08:55:35;94866.81;;;8.78;100.00
12785;BME280;6456;42.680;23.260;2024-03-08T08:58:02;94875.72;;;8.83;100.00
12785;BME280;6456;42.680;23.260;2024-03-08T09:00:29;94816.28;;;8.56;100.00
12785;BME280;6456;42.680;23.260;2024-03-08T09:02:58;94881.28;;;9.15;100.00
12785;BME280;6456;42.680;23.260;2024-03-08T09:05:25;94825.66;;;8.85;100.00
12785;BME280;6456;42.680;23.260;2024-03-08T09:07:52;94876.25;;;9.20;100.00
12785;BME280;6456;42.680;23.260;2024-03-08T09:10:19;94843.25;;;8.97;100.00
12785;BME280;6456;42.680;23.260;2024-03-08T09:12:48;94827.44;;;8.71;100.00
12785;BME280;6456;42.680;23.260;2024-03-08T09:15:15;94843.44;;;8.89;100.00
12785;BME280;6456;42.680;23.260;2024-03-08T09:17:46;94886.16;;;9.24;100.00
12785;BME280;6456;42.680;23.260;2024-03-08T09:20:14;94848.78;;;9.09;100.00
12785;BME280;6456;42.680;23.260;2024-03-08T09:22:43;94860.34;;;9.34;100.00
12785;BME280;6456;42.680;23.260;2024-03-08T09:25:11;94848.16;;;9.20;100.00
12785;BME280;6456;42.680;23.260;2024-03-08T09:27:38;94879.97;;;9.51;100.00
12785;BME280;6456;42.680;23.260;2024-03-08T09:30:07;94855.28;;;9.33;100.00
12785;BME280;6456;42.680;23.260;2024-03-08T09:32:34;94890.09;;;9.61;100.00
12785;BME280;6456;42.680;23.260;2024-03-08T09:35:02;94889.69;;;9.64;100.00
12785;BME280;6456;42.680;23.260;2024-03-08T09:37:32;94885.66;;;9.61;100.00
12785;BME280;6456;42.680;23.260;2024-03-08T09:39:59;94874.09;;;9.49;100.00
12785;BME280;6456;42.680;23.260;2024-03-08T09:42:30;94839.72;;;9.31;100.00
12785;BME280;6456;42.680;23.260;2024-03-08T09:44:58;94825.16;;;9.16;100.00
12785;BME280;6456;42.680;23.260;2024-03-08T09:47:28;94841.97;;;9.41;100.00
12785;BME280;6456;42.680;23.260;2024-03-08T09:49:59;94894.16;;;9.83;100.00
12785;BME280;6456;42.680;23.260;2024-03-08T09:52:26;94829.84;;;9.59;100.00
12785;BME280;6456;42.680;23.260;2024-03-08T09:54:56;94827.44;;;9.71;100.00
12785;BME280;6456;42.680;23.260;2024-03-08T09:57:23;94847.25;;;9.80;100.00
12785;BME280;6456;42.680;23.260;2024-03-08T09:59:51;94854.13;;;9.88;100.00
12785;BME280;6456;42.680;23.260;2024-03-08T10:02:18;94877.38;;;10.37;100.00
12785;BME280;6456;42.680;23.260;2024-03-08T10:04:48;94828.63;;;10.27;100.00
12785;BME280;6456;42.680;23.260;2024-03-08T10:07:15;94812.41;;;10.37;97.97
12785;BME280;6456;42.680;23.260;2024-03-08T10:09:42;94798.28;;;10.25;95.57
12785;BME280;6456;42.680;23.260;2024-03-08T10:12:16;94788.00;;;10.17;95.92
12785;BME280;6456;42.680;23.260;2024-03-08T10:14:45;94797.69;;;10.29;95.96
12785;BME280;6456;42.680;23.260;2024-03-08T10:17:13;94861.59;;;10.43;94.05
12785;BME280;6456;42.680;23.260;2024-03-08T10:19:51;94816.53;;;10.13;95.03
12785;BME280;6456;42.680;23.260;2024-03-08T10:22:18;94829.81;;;10.38;95.55
12785;BME280;6456;42.680;23.260;2024-03-08T10:24:45;94869.22;;;10.71;95.86
12785;BME280;6456;42.680;23.260;2024-03-08T10:27:13;94824.13;;;10.48;92.80
12785;BME280;6456;42.680;23.260;2024-03-08T10:29:42;94880.75;;;10.76;95.33
12785;BME280;6456;42.680;23.260;2024-03-08T10:32:10;94796.50;;;9.99;98.03
12785;BME280;6456;42.680;23.260;2024-03-08T10:34:38;94814.69;;;9.75;97.58
12785;BME280;6456;42.680;23.260;2024-03-08T10:37:07;94873.53;;;10.06;98.39
12785;BME280;6456;42.680;23.260;2024-03-08T10:39:36;94856.16;;;10.18;99.23
12785;BME280;6456;42.680;23.260;2024-03-08T10:42:05;94845.06;;;10.16;98.64
12785;BME280;6456;42.680;23.260;2024-03-08T10:44:44;94858.13;;;10.43;98.01
12785;BME280;6456;42.680;23.260;2024-03-08T10:47:19;94794.47;;;10.21;98.14
12785;BME280;6456;42.680;23.260;2024-03-08T10:50:10;94791.84;;;10.21;95.33
12785;BME280;6456;42.680;23.260;2024-03-08T10:52:40;94855.88;;;10.66;94.19
12785;BME280;6456;42.680;23.260;2024-03-08T10:55:07;94812.41;;;10.44;93.96
12785;BME280;6456;42.680;23.260;2024-03-08T10:57:41;94807.56;;;10.41;88.94
12785;BME280;6456;42.680;23.260;2024-03-08T11:00:10;94828.75;;;10.65;90.37
12785;BME280;6456;42.680;23.260;2024-03-08T11:02:43;94808.03;;;10.82;91.21
12785;BME280;6456;42.680;23.260;2024-03-08T11:05:10;94808.13;;;11.00;89.97
12785;BME280;6456;42.680;23.260;2024-03-08T11:07:50;94749.97;;;10.77;92.79
12785;BME280;6456;42.680;23.260;2024-03-08T11:10:19;94779.81;;;10.95;96.33
12785;BME280;6456;42.680;23.260;2024-03-08T11:12:47;94710.09;;;10.29;91.43
12785;BME280;6456;42.680;23.260;2024-03-08T11:15:17;94778.28;;;10.75;92.85
12785;BME280;6456;42.680;23.260;2024-03-08T11:17:48;94808.22;;;10.87;91.41
12785;BME280;6456;42.680;23.260;2024-03-08T11:20:16;94824.44;;;10.84;89.37
12785;BME280;6456;42.680;23.260;2024-03-08T11:22:50;94816.72;;;10.82;90.00
12785;BME280;6456;42.680;23.260;2024-03-08T11:25:42;94792.84;;;10.84;89.82
12785;BME280;6456;42.680;23.260;2024-03-08T11:28:13;94823.09;;;11.06;90.10
12785;BME280;6456;42.680;23.260;2024-03-08T11:30:45;94692.72;;;10.08;89.51
12785;BME280;6456;42.680;23.260;2024-03-08T11:33:16;94735.19;;;10.25;88.59
12785;BME280;6456;42.680;23.260;2024-03-08T11:35:44;94730.47;;;10.40;89.72
12785;BME280;6456;42.680;23.260;2024-03-08T11:38:13;94823.88;;;11.13;89.07
12785;BME280;6456;42.680;23.260;2024-03-08T11:40:48;94755.75;;;10.92;89.58
12785;BME280;6456;42.680;23.260;2024-03-08T11:43:17;94738.56;;;10.83;94.51
12785;BME280;6456;42.680;23.260;2024-03-08T11:45:45;94764.13;;;10.76;93.10
12785;BME280;6456;42.680;23.260;2024-03-08T11:48:12;94804.19;;;10.84;94.56
12785;BME280;6456;42.680;23.260;2024-03-08T11:50:40;94805.72;;;10.48;95.18
12785;BME280;6456;42.680;23.260;2024-03-08T11:53:08;94799.25;;;10.44;96.33
12785;BME280;6456;42.680;23.260;2024-03-08T11:55:37;94758.28;;;10.16;95.18
12785;BME280;6456;42.680;23.260;2024-03-08T11:58:05;94766.34;;;10.21;96.38
12785;BME280;6456;42.680;23.260;2024-03-08T12:00:35;94696.84;;;9.91;98.93
12785;BME280;6456;42.680;23.260;2024-03-08T12:03:05;94713.56;;;10.03;96.25
12785;BME280;6456;42.680;23.260;2024-03-08T12:05:33;94734.00;;;9.95;96.21
12785;BME280;6456;42.680;23.260;2024-03-08T12:08:02;94789.44;;;10.19;96.31
12785;BME280;6456;42.680;23.260;2024-03-08T12:10:30;94727.38;;;9.86;96.78
12785;BME280;6456;42.680;23.260;2024-03-08T12:12:59;94799.53;;;10.16;94.36
12785;BME280;6456;42.680;23.260;2024-03-08T12:15:26;94787.78;;;10.05;96.75
12785;BME280;6456;42.680;23.260;2024-03-08T12:17:59;94747.19;;;9.75;99.80
12785;BME280;6456;42.680;23.260;2024-03-08T12:20:28;94784.97;;;9.94;98.65
12785;BME280;6456;42.680;23.260;2024-03-08T12:22:56;94723.78;;;9.41;98.31
12785;BME280;6456;42.680;23.260;2024-03-08T12:25:26;94760.75;;;9.79;100.00
12785;BME280;6456;42.680;23.260;2024-03-08T12:28:06;94781.72;;;9.98;100.00
12785;BME280;6456;42.680;23.260;2024-03-08T12:30:45;94777.31;;;9.79;95.78
12785;BME280;6456;42.680;23.260;2024-03-08T12:33:12;94722.16;;;9.53;95.58
12785;BME280;6456;42.680;23.260;2024-03-08T12:35:39;94744.56;;;9.68;94.48
12785;BME280;6456;42.680;23.260;2024-03-08T12:38:07;94742.75;;;9.76;94.76
12785;BME280;6456;42.680;23.260;2024-03-08T12:40:34;94761.69;;;10.10;94.77
12785;BME280;6456;42.680;23.260;2024-03-08T12:43:08;94728.94;;;10.06;97.67
12785;BME280;6456;42.680;23.260;2024-03-08T12:45:37;94771.50;;;10.54;98.12
12785;BME280;6456;42.680;23.260;2024-03-08T12:48:12;94691.16;;;9.94;98.19
12785;BME280;6456;42.680;23.260;2024-03-08T12:50:40;94768.28;;;10.46;97.23
12785;BME280;6456;42.680;23.260;2024-03-08T12:53:10;94714.16;;;10.18;97.01
12785;BME280;6456;42.680;23.260;2024-03-08T12:55:39;94711.50;;;10.32;95.25
12785;BME280;6456;42.680;23.260;2024-03-08T12:58:08;94764.66;;;10.47;96.91
12785;BME280;6456;42.680;23.260;2024-03-08T13:00:40;94740.66;;;10.23;97.35
12785;BME280;6456;42.680;23.260;2024-03-08T13:03:12;94698.06;;;9.89;97.87
12785;BME280;6456;42.680;23.260;2024-03-08T13:05:39;94747.53;;;10.11;97.10
12785;BME280;6456;42.680;23.260;2024-03-08T13:08:08;94769.81;;;10.22;96.97
12785;BME280;6456;42.680;23.260;2024-03-08T13:10:38;94727.53;;;10.04;97.23